LFSB METAR :   2017/06/25 20:30 LFSB 252030Z 23004KT CAVOK 19/12 Q1016 NOSIG

TAF  2017/06/25 18:21 TAF LFSB 251700Z 2518/2618 26008KT CAVOK BECMG 2521/2524 VRB02KT BECMG 2608/2610 02008KT BECMG 2616/2618 FEW060CB PROB40 TEMPO 2617/2618 VRB15G30KT 2000 TSRA BKN060CB